This is the latest recevied weather packets stored in our database for station/object EA2RCU-15. If no packets are shown the sender has not sent any weather packets the latest 10 day(s).
| Time | Temp. | Humidity | Pressure | Rain* | Wind** | Luminosity | Snow |
|---|---|---|---|---|---|---|---|
| 1778092206 | 17.78° C | 44% | 995 hPa | 0 mm | - | - | - |
| 1778091905 | 18.89° C | 40% | 996 hPa | 0 mm | - | - | - |
| 1778091605 | 20° C | 36% | 996 hPa | 0 mm | - | - | - |
| 1778091305 | 21.67° C | 32% | 996 hPa | 0 mm | - | - | - |
| 1778091005 | 23.89° C | 31% | 996 hPa | 0 mm | - | - | - |
| 1778090706 | 24.44° C | 30% | 996 hPa | 0 mm | - | - | - |
| 1778090405 | 25° C | 28% | 996 hPa | 0 mm | - | - | - |
| 1778090105 | 25.56° C | 27% | 995 hPa | 0 mm | - | - | - |
| 1778089805 | 25° C | 28% | 995 hPa | 0 mm | - | - | - |
| 1778089505 | 25.56° C | 29% | 995 hPa | 0 mm | - | - | - |
| 1778089206 | 25.56° C | 30% | 996 hPa | 0 mm | - | - | - |
| 1778088906 | 25° C | 32% | 996 hPa | 0 mm | - | - | - |
| 1778088605 | 22.78° C | 35% | 996 hPa | 0 mm | - | - | - |
| 1778088305 | 22.22° C | 34% | 996 hPa | 0 mm | - | - | - |
| 1778088005 | 22.22° C | 32% | 996 hPa | 0 mm | - | - | - |
| 1778087705 | 25.56° C | 26% | 996 hPa | 0 mm | - | - | - |
| 1778087405 | 26.67° C | 25% | 996 hPa | 0 mm | - | - | - |
| 1778087105 | 27.22° C | 23% | 996 hPa | 0 mm | - | - | - |
| 1778086805 | 28.33° C | 23% | 996 hPa | 0 mm | - | - | - |
| 1778086505 | 27.78° C | 27% | 996 hPa | 0 mm | - | - | - |
| 1778086206 | 26.67° C | 31% | 996 hPa | 0 mm | - | - | - |
| 1778085905 | 25° C | 36% | 996 hPa | 0 mm | - | - | - |
| 1778085606 | 22.22° C | 52% | 996 hPa | 0 mm | - | - | - |
| 1778085305 | 18.89° C | 60% | 996 hPa | 0 mm | - | - | - |
| 1778085005 | 17.78° C | 64% | 996 hPa | 0 mm | - | - | - |
* Rain latest hour (hover to see other rain measurements)
** Current wind speed in m/s (hover to see current wind gust speed)